Terminal Aerodrome Forecast
Issued by NWS

Home | Current Version | Previous Version | Text Only | Print | Product List | Glossary On
Versions: 1 2 3 4 5 6 7 8 9 10 11 12 13 14 15 16 17 18 19 20
000
FTUS45 KTFX 292025 AAC
TAFHVR
TAF AMD
KHVR 292025Z 2920/3018 16012KT P6SM SCT040 BKN100
      TEMPO 2920/2924 5SM FU BKN030
     FM300000 20012G22KT 5SM FU VCSH SCT050 BKN090
     FM300500 28010KT 4SM FU OVC150
     FM300900 26005KT 6SM FU BKN120 PROB30 3009/3015 -SHRA BKN090
     FM301600 25012KT 6SM FU SCT120=

USA.gov is the U.S. government's official web portal to all federal, state and local government web resources and services.